sensor_id;sensor_type;location;lat;lon;timestamp;P1;durP1;ratioP1;P2;durP2;ratioP2
20283;SDS011;10301;50.832;4.080;2023-07-29T00:01:33;4.68;;;1.58;;
20283;SDS011;10301;50.832;4.080;2023-07-29T00:03:59;3.33;;;1.70;;
20283;SDS011;10301;50.832;4.080;2023-07-29T00:06:25;4.47;;;1.77;;
20283;SDS011;10301;50.832;4.080;2023-07-29T00:08:51;4.40;;;1.60;;
20283;SDS011;10301;50.832;4.080;2023-07-29T00:11:17;3.72;;;1.48;;
20283;SDS011;10301;50.832;4.080;2023-07-29T00:13:43;4.05;;;1.60;;
20283;SDS011;10301;50.832;4.080;2023-07-29T00:16:09;4.40;;;1.58;;
20283;SDS011;10301;50.832;4.080;2023-07-29T00:18:34;4.47;;;1.65;;
20283;SDS011;10301;50.832;4.080;2023-07-29T00:21:00;3.40;;;1.60;;
20283;SDS011;10301;50.832;4.080;2023-07-29T00:23:26;5.63;;;1.52;;
20283;SDS011;10301;50.832;4.080;2023-07-29T00:25:51;4.68;;;1.73;;
20283;SDS011;10301;50.832;4.080;2023-07-29T00:28:17;3.55;;;1.98;;
20283;SDS011;10301;50.832;4.080;2023-07-29T00:30:43;4.57;;;1.75;;
20283;SDS011;10301;50.832;4.080;2023-07-29T00:33:08;5.35;;;2.08;;
20283;SDS011;10301;50.832;4.080;2023-07-29T00:35:34;4.30;;;1.55;;
20283;SDS011;10301;50.832;4.080;2023-07-29T00:38:00;6.70;;;1.90;;
20283;SDS011;10301;50.832;4.080;2023-07-29T00:40:27;3.33;;;1.70;;
20283;SDS011;10301;50.832;4.080;2023-07-29T00:42:53;5.72;;;1.90;;
20283;SDS011;10301;50.832;4.080;2023-07-29T00:45:19;4.82;;;1.90;;
20283;SDS011;10301;50.832;4.080;2023-07-29T00:47:45;5.35;;;1.98;;
20283;SDS011;10301;50.832;4.080;2023-07-29T00:50:13;3.83;;;1.70;;
20283;SDS011;10301;50.832;4.080;2023-07-29T00:52:39;5.35;;;1.90;;
20283;SDS011;10301;50.832;4.080;2023-07-29T00:55:05;5.80;;;1.70;;
20283;SDS011;10301;50.832;4.080;2023-07-29T00:57:32;6.80;;;1.80;;
20283;SDS011;10301;50.832;4.080;2023-07-29T01:00:00;5.53;;;1.83;;
20283;SDS011;10301;50.832;4.080;2023-07-29T01:02:26;3.42;;;1.90;;
20283;SDS011;10301;50.832;4.080;2023-07-29T01:04:54;4.13;;;1.65;;
20283;SDS011;10301;50.832;4.080;2023-07-29T01:10:19;4.03;;;1.80;;
20283;SDS011;10301;50.832;4.080;2023-07-29T01:18:24;4.78;;;1.83;;
20283;SDS011;10301;50.832;4.080;2023-07-29T01:20:54;5.00;;;1.85;;
20283;SDS011;10301;50.832;4.080;2023-07-29T01:23:25;6.20;;;2.00;;
20283;SDS011;10301;50.832;4.080;2023-07-29T01:25:53;4.00;;;2.00;;
20283;SDS011;10301;50.832;4.080;2023-07-29T01:28:19;5.25;;;1.98;;
20283;SDS011;10301;50.832;4.080;2023-07-29T01:30:45;4.95;;;2.15;;
20283;SDS011;10301;50.832;4.080;2023-07-29T01:33:18;4.38;;;1.80;;
20283;SDS011;10301;50.832;4.080;2023-07-29T01:35:54;4.07;;;1.90;;
20283;SDS011;10301;50.832;4.080;2023-07-29T01:38:30;6.70;;;1.95;;
20283;SDS011;10301;50.832;4.080;2023-07-29T01:41:03;4.35;;;1.58;;
20283;SDS011;10301;50.832;4.080;2023-07-29T01:43:31;4.28;;;2.20;;
20283;SDS011;10301;50.832;4.080;2023-07-29T01:45:58;4.93;;;1.90;;
20283;SDS011;10301;50.832;4.080;2023-07-29T01:48:25;4.50;;;2.20;;
20283;SDS011;10301;50.832;4.080;2023-07-29T01:50:52;6.35;;;2.30;;
20283;SDS011;10301;50.832;4.080;2023-07-29T01:53:19;4.85;;;2.28;;
20283;SDS011;10301;50.832;4.080;2023-07-29T01:55:44;4.72;;;1.98;;
20283;SDS011;10301;50.832;4.080;2023-07-29T01:58:10;5.25;;;2.38;;
20283;SDS011;10301;50.832;4.080;2023-07-29T02:00:36;4.70;;;2.38;;
20283;SDS011;10301;50.832;4.080;2023-07-29T02:03:02;6.22;;;2.25;;
20283;SDS011;10301;50.832;4.080;2023-07-29T02:05:27;7.50;;;2.45;;
20283;SDS011;10301;50.832;4.080;2023-07-29T02:07:53;5.20;;;2.38;;
20283;SDS011;10301;50.832;4.080;2023-07-29T02:10:19;6.57;;;2.40;;
20283;SDS011;10301;50.832;4.080;2023-07-29T02:12:44;4.95;;;2.28;;
20283;SDS011;10301;50.832;4.080;2023-07-29T02:15:10;4.28;;;1.95;;
20283;SDS011;10301;50.832;4.080;2023-07-29T02:17:36;5.75;;;2.17;;
20283;SDS011;10301;50.832;4.080;2023-07-29T02:20:02;6.60;;;2.45;;
20283;SDS011;10301;50.832;4.080;2023-07-29T02:22:29;4.53;;;2.10;;
20283;SDS011;10301;50.832;4.080;2023-07-29T02:24:54;5.40;;;2.20;;
20283;SDS011;10301;50.832;4.080;2023-07-29T02:27:20;5.47;;;2.33;;
20283;SDS011;10301;50.832;4.080;2023-07-29T02:29:46;5.93;;;2.28;;
20283;SDS011;10301;50.832;4.080;2023-07-29T02:32:11;5.93;;;2.60;;
20283;SDS011;10301;50.832;4.080;2023-07-29T02:34:37;4.93;;;2.22;;
20283;SDS011;10301;50.832;4.080;2023-07-29T02:37:03;9.77;;;2.55;;
20283;SDS011;10301;50.832;4.080;2023-07-29T02:39:29;5.35;;;2.13;;
20283;SDS011;10301;50.832;4.080;2023-07-29T02:41:54;5.13;;;2.33;;
20283;SDS011;10301;50.832;4.080;2023-07-29T02:44:21;6.18;;;2.50;;
20283;SDS011;10301;50.832;4.080;2023-07-29T02:46:46;6.15;;;2.30;;
20283;SDS011;10301;50.832;4.080;2023-07-29T02:49:12;6.65;;;2.58;;
20283;SDS011;10301;50.832;4.080;2023-07-29T02:51:38;5.75;;;2.67;;
20283;SDS011;10301;50.832;4.080;2023-07-29T02:54:03;6.60;;;2.22;;
20283;SDS011;10301;50.832;4.080;2023-07-29T02:56:29;5.90;;;2.75;;
20283;SDS011;10301;50.832;4.080;2023-07-29T02:58:55;5.68;;;2.85;;
20283;SDS011;10301;50.832;4.080;2023-07-29T03:01:22;8.82;;;3.03;;
20283;SDS011;10301;50.832;4.080;2023-07-29T03:03:50;5.97;;;2.70;;
20283;SDS011;10301;50.832;4.080;2023-07-29T03:06:15;6.97;;;2.80;;
20283;SDS011;10301;50.832;4.080;2023-07-29T03:08:41;6.13;;;3.10;;
20283;SDS011;10301;50.832;4.080;2023-07-29T03:11:13;6.63;;;2.97;;
20283;SDS011;10301;50.832;4.080;2023-07-29T03:13:40;8.20;;;3.08;;
20283;SDS011;10301;50.832;4.080;2023-07-29T03:16:13;6.03;;;2.90;;
20283;SDS011;10301;50.832;4.080;2023-07-29T03:18:40;5.32;;;2.67;;
20283;SDS011;10301;50.832;4.080;2023-07-29T03:21:06;6.93;;;2.83;;
20283;SDS011;10301;50.832;4.080;2023-07-29T03:23:33;6.60;;;2.85;;
20283;SDS011;10301;50.832;4.080;2023-07-29T03:25:59;8.52;;;3.10;;
20283;SDS011;10301;50.832;4.080;2023-07-29T03:28:26;6.13;;;3.20;;
20283;SDS011;10301;50.832;4.080;2023-07-29T03:30:54;7.07;;;2.75;;
20283;SDS011;10301;50.832;4.080;2023-07-29T03:33:20;5.75;;;3.08;;
20283;SDS011;10301;50.832;4.080;2023-07-29T03:35:45;9.18;;;3.17;;
20283;SDS011;10301;50.832;4.080;2023-07-29T03:38:12;7.53;;;3.05;;
20283;SDS011;10301;50.832;4.080;2023-07-29T03:40:38;7.07;;;3.15;;
20283;SDS011;10301;50.832;4.080;2023-07-29T03:43:04;7.97;;;2.90;;
20283;SDS011;10301;50.832;4.080;2023-07-29T03:45:30;6.47;;;2.90;;
20283;SDS011;10301;50.832;4.080;2023-07-29T03:47:56;6.60;;;3.30;;
20283;SDS011;10301;50.832;4.080;2023-07-29T03:50:22;7.00;;;3.15;;
20283;SDS011;10301;50.832;4.080;2023-07-29T03:52:47;7.43;;;3.20;;
20283;SDS011;10301;50.832;4.080;2023-07-29T03:55:13;9.27;;;3.30;;
20283;SDS011;10301;50.832;4.080;2023-07-29T03:57:39;6.30;;;2.80;;
20283;SDS011;10301;50.832;4.080;2023-07-29T04:00:05;6.35;;;3.22;;
20283;SDS011;10301;50.832;4.080;2023-07-29T04:02:31;5.50;;;2.92;;
20283;SDS011;10301;50.832;4.080;2023-07-29T04:04:56;7.43;;;2.90;;
20283;SDS011;10301;50.832;4.080;2023-07-29T04:07:22;6.13;;;2.90;;
20283;SDS011;10301;50.832;4.080;2023-07-29T04:09:48;5.38;;;2.63;;
20283;SDS011;10301;50.832;4.080;2023-07-29T04:12:14;8.27;;;3.10;;
20283;SDS011;10301;50.832;4.080;2023-07-29T04:14:40;5.18;;;2.85;;
20283;SDS011;10301;50.832;4.080;2023-07-29T04:17:06;5.85;;;3.17;;
20283;SDS011;10301;50.832;4.080;2023-07-29T04:19:32;5.90;;;2.90;;
20283;SDS011;10301;50.832;4.080;2023-07-29T04:21:58;5.38;;;2.58;;
20283;SDS011;10301;50.832;4.080;2023-07-29T04:24:24;6.32;;;3.13;;
20283;SDS011;10301;50.832;4.080;2023-07-29T04:26:50;6.90;;;3.08;;
20283;SDS011;10301;50.832;4.080;2023-07-29T04:29:16;6.43;;;2.80;;
20283;SDS011;10301;50.832;4.080;2023-07-29T04:31:42;6.72;;;2.97;;
20283;SDS011;10301;50.832;4.080;2023-07-29T04:34:07;7.00;;;3.00;;
20283;SDS011;10301;50.832;4.080;2023-07-29T04:36:34;4.50;;;2.55;;
20283;SDS011;10301;50.832;4.080;2023-07-29T04:39:00;5.60;;;2.53;;
20283;SDS011;10301;50.832;4.080;2023-07-29T04:41:25;6.60;;;2.65;;
20283;SDS011;10301;50.832;4.080;2023-07-29T04:43:51;5.63;;;3.00;;
20283;SDS011;10301;50.832;4.080;2023-07-29T04:46:17;4.90;;;2.40;;
20283;SDS011;10301;50.832;4.080;2023-07-29T04:48:43;6.00;;;2.53;;
20283;SDS011;10301;50.832;4.080;2023-07-29T04:51:08;5.70;;;2.47;;
20283;SDS011;10301;50.832;4.080;2023-07-29T04:53:34;4.97;;;2.40;;
20283;SDS011;10301;50.832;4.080;2023-07-29T04:56:01;4.53;;;2.25;;
20283;SDS011;10301;50.832;4.080;2023-07-29T04:58:27;7.00;;;2.30;;
20283;SDS011;10301;50.832;4.080;2023-07-29T05:00:54;5.50;;;2.50;;
20283;SDS011;10301;50.832;4.080;2023-07-29T05:03:20;5.38;;;2.20;;
20283;SDS011;10301;50.832;4.080;2023-07-29T05:05:46;7.25;;;2.40;;
20283;SDS011;10301;50.832;4.080;2023-07-29T05:08:12;5.60;;;2.40;;
20283;SDS011;10301;50.832;4.080;2023-07-29T05:10:38;5.97;;;2.40;;
20283;SDS011;10301;50.832;4.080;2023-07-29T05:13:03;7.38;;;2.42;;
20283;SDS011;10301;50.832;4.080;2023-07-29T05:15:29;4.72;;;2.30;;
20283;SDS011;10301;50.832;4.080;2023-07-29T05:17:55;6.40;;;2.45;;
20283;SDS011;10301;50.832;4.080;2023-07-29T05:20:21;5.82;;;2.70;;
20283;SDS011;10301;50.832;4.080;2023-07-29T05:22:46;5.32;;;3.33;;
20283;SDS011;10301;50.832;4.080;2023-07-29T05:25:12;7.07;;;3.95;;
20283;SDS011;10301;50.832;4.080;2023-07-29T05:27:38;6.68;;;3.40;;
20283;SDS011;10301;50.832;4.080;2023-07-29T05:30:03;7.65;;;2.92;;
20283;SDS011;10301;50.832;4.080;2023-07-29T05:32:29;7.57;;;3.20;;
20283;SDS011;10301;50.832;4.080;2023-07-29T05:34:55;4.85;;;2.70;;
20283;SDS011;10301;50.832;4.080;2023-07-29T05:37:20;6.82;;;2.67;;
20283;SDS011;10301;50.832;4.080;2023-07-29T05:39:46;5.50;;;2.63;;
20283;SDS011;10301;50.832;4.080;2023-07-29T05:42:12;7.65;;;2.90;;
20283;SDS011;10301;50.832;4.080;2023-07-29T05:44:37;7.47;;;2.78;;
20283;SDS011;10301;50.832;4.080;2023-07-29T05:47:03;6.30;;;2.67;;
20283;SDS011;10301;50.832;4.080;2023-07-29T05:49:29;7.40;;;2.72;;
20283;SDS011;10301;50.832;4.080;2023-07-29T05:51:54;8.43;;;2.97;;
20283;SDS011;10301;50.832;4.080;2023-07-29T05:54:20;6.25;;;2.33;;
20283;SDS011;10301;50.832;4.080;2023-07-29T05:56:46;5.13;;;2.85;;
20283;SDS011;10301;50.832;4.080;2023-07-29T05:59:11;6.55;;;2.70;;
20283;SDS011;10301;50.832;4.080;2023-07-29T06:01:37;6.95;;;2.55;;
20283;SDS011;10301;50.832;4.080;2023-07-29T06:04:03;5.57;;;1.98;;
20283;SDS011;10301;50.832;4.080;2023-07-29T06:06:28;3.83;;;2.00;;
20283;SDS011;10301;50.832;4.080;2023-07-29T06:08:54;6.95;;;2.17;;
20283;SDS011;10301;50.832;4.080;2023-07-29T06:11:20;4.35;;;1.75;;
20283;SDS011;10301;50.832;4.080;2023-07-29T06:13:46;4.70;;;1.90;;
20283;SDS011;10301;50.832;4.080;2023-07-29T06:16:13;3.35;;;1.60;;
20283;SDS011;10301;50.832;4.080;2023-07-29T06:18:38;5.03;;;1.73;;
20283;SDS011;10301;50.832;4.080;2023-07-29T06:21:04;4.53;;;1.67;;
20283;SDS011;10301;50.832;4.080;2023-07-29T06:23:32;3.67;;;1.52;;
20283;SDS011;10301;50.832;4.080;2023-07-29T06:25:58;4.25;;;1.80;;
20283;SDS011;10301;50.832;4.080;2023-07-29T06:28:25;3.45;;;1.65;;
20283;SDS011;10301;50.832;4.080;2023-07-29T06:30:51;4.22;;;1.83;;
20283;SDS011;10301;50.832;4.080;2023-07-29T06:33:17;4.28;;;1.70;;
20283;SDS011;10301;50.832;4.080;2023-07-29T06:35:43;5.10;;;1.83;;
20283;SDS011;10301;50.832;4.080;2023-07-29T06:38:09;5.15;;;1.90;;
20283;SDS011;10301;50.832;4.080;2023-07-29T06:40:34;4.90;;;1.70;;
20283;SDS011;10301;50.832;4.080;2023-07-29T06:43:00;7.63;;;1.83;;
20283;SDS011;10301;50.832;4.080;2023-07-29T06:45:26;6.05;;;2.00;;
20283;SDS011;10301;50.832;4.080;2023-07-29T06:47:51;4.18;;;1.92;;
20283;SDS011;10301;50.832;4.080;2023-07-29T06:50:17;3.28;;;1.70;;
20283;SDS011;10301;50.832;4.080;2023-07-29T06:52:43;3.50;;;1.70;;
20283;SDS011;10301;50.832;4.080;2023-07-29T06:55:10;3.30;;;1.60;;
20283;SDS011;10301;50.832;4.080;2023-07-29T06:57:35;4.35;;;1.85;;
20283;SDS011;10301;50.832;4.080;2023-07-29T07:00:01;4.18;;;1.50;;
20283;SDS011;10301;50.832;4.080;2023-07-29T07:02:28;5.30;;;1.50;;
20283;SDS011;10301;50.832;4.080;2023-07-29T07:04:54;5.70;;;1.77;;
20283;SDS011;10301;50.832;4.080;2023-07-29T07:07:19;6.28;;;1.83;;
20283;SDS011;10301;50.832;4.080;2023-07-29T07:09:45;5.15;;;2.03;;
20283;SDS011;10301;50.832;4.080;2023-07-29T07:12:11;4.40;;;1.90;;
20283;SDS011;10301;50.832;4.080;2023-07-29T07:14:36;5.40;;;2.00;;
20283;SDS011;10301;50.832;4.080;2023-07-29T07:17:03;4.72;;;1.83;;
20283;SDS011;10301;50.832;4.080;2023-07-29T07:19:28;4.07;;;1.80;;
20283;SDS011;10301;50.832;4.080;2023-07-29T07:21:54;3.78;;;1.85;;
20283;SDS011;10301;50.832;4.080;2023-07-29T07:24:20;4.38;;;1.50;;
20283;SDS011;10301;50.832;4.080;2023-07-29T07:26:45;5.72;;;1.73;;
20283;SDS011;10301;50.832;4.080;2023-07-29T07:29:11;3.85;;;1.70;;
20283;SDS011;10301;50.832;4.080;2023-07-29T07:31:36;4.68;;;1.90;;
20283;SDS011;10301;50.832;4.080;2023-07-29T07:34:02;4.68;;;1.90;;
20283;SDS011;10301;50.832;4.080;2023-07-29T07:36:28;4.00;;;1.80;;
20283;SDS011;10301;50.832;4.080;2023-07-29T07:38:54;6.43;;;2.40;;
20283;SDS011;10301;50.832;4.080;2023-07-29T07:41:20;7.22;;;1.90;;
20283;SDS011;10301;50.832;4.080;2023-07-29T07:43:46;4.00;;;1.63;;
20283;SDS011;10301;50.832;4.080;2023-07-29T07:46:11;4.82;;;1.90;;
20283;SDS011;10301;50.832;4.080;2023-07-29T07:48:37;4.43;;;1.88;;
20283;SDS011;10301;50.832;4.080;2023-07-29T07:51:13;3.50;;;1.38;;
20283;SDS011;10301;50.832;4.080;2023-07-29T07:53:38;5.60;;;1.40;;
20283;SDS011;10301;50.832;4.080;2023-07-29T07:56:05;3.42;;;1.33;;
20283;SDS011;10301;50.832;4.080;2023-07-29T07:58:31;2.90;;;1.30;;
20283;SDS011;10301;50.832;4.080;2023-07-29T08:01:01;4.82;;;1.45;;
20283;SDS011;10301;50.832;4.080;2023-07-29T08:03:30;6.03;;;1.40;;
20283;SDS011;10301;50.832;4.080;2023-07-29T08:05:56;4.28;;;1.40;;
20283;SDS011;10301;50.832;4.080;2023-07-29T08:08:21;4.00;;;1.60;;
20283;SDS011;10301;50.832;4.080;2023-07-29T08:10:47;3.28;;;1.40;;
20283;SDS011;10301;50.832;4.080;2023-07-29T08:13:13;4.72;;;1.50;;
20283;SDS011;10301;50.832;4.080;2023-07-29T08:15:38;4.95;;;1.63;;
20283;SDS011;10301;50.832;4.080;2023-07-29T08:18:06;3.40;;;1.70;;
20283;SDS011;10301;50.832;4.080;2023-07-29T08:20:31;3.47;;;1.58;;
20283;SDS011;10301;50.832;4.080;2023-07-29T08:22:57;8.23;;;2.00;;
20283;SDS011;10301;50.832;4.080;2023-07-29T08:25:23;3.83;;;1.30;;
20283;SDS011;10301;50.832;4.080;2023-07-29T08:27:49;7.80;;;1.50;;
20283;SDS011;10301;50.832;4.080;2023-07-29T08:30:14;4.78;;;1.85;;
20283;SDS011;10301;50.832;4.080;2023-07-29T08:32:41;4.50;;;1.48;;
20283;SDS011;10301;50.832;4.080;2023-07-29T08:35:07;4.75;;;1.65;;
20283;SDS011;10301;50.832;4.080;2023-07-29T08:37:33;4.00;;;1.70;;
20283;SDS011;10301;50.832;4.080;2023-07-29T08:39:58;4.55;;;1.50;;
20283;SDS011;10301;50.832;4.080;2023-07-29T08:42:26;3.70;;;1.67;;
20283;SDS011;10301;50.832;4.080;2023-07-29T08:44:56;3.58;;;1.42;;
20283;SDS011;10301;50.832;4.080;2023-07-29T08:47:25;3.53;;;1.50;;
20283;SDS011;10301;50.832;4.080;2023-07-29T08:49:50;3.90;;;1.80;;
20283;SDS011;10301;50.832;4.080;2023-07-29T08:52:17;4.82;;;1.48;;
20283;SDS011;10301;50.832;4.080;2023-07-29T08:54:44;4.72;;;1.70;;
20283;SDS011;10301;50.832;4.080;2023-07-29T08:57:10;3.80;;;1.70;;
20283;SDS011;10301;50.832;4.080;2023-07-29T08:59:35;4.47;;;1.73;;
20283;SDS011;10301;50.832;4.080;2023-07-29T09:02:02;8.15;;;1.90;;
20283;SDS011;10301;50.832;4.080;2023-07-29T09:04:28;5.10;;;2.00;;
20283;SDS011;10301;50.832;4.080;2023-07-29T09:06:54;3.38;;;1.58;;
20283;SDS011;10301;50.832;4.080;2023-07-29T09:09:21;5.00;;;2.05;;
20283;SDS011;10301;50.832;4.080;2023-07-29T09:11:47;4.50;;;1.65;;
20283;SDS011;10301;50.832;4.080;2023-07-29T09:14:13;5.55;;;1.85;;
20283;SDS011;10301;50.832;4.080;2023-07-29T09:16:39;4.80;;;1.70;;
20283;SDS011;10301;50.832;4.080;2023-07-29T09:19:06;4.07;;;1.77;;
20283;SDS011;10301;50.832;4.080;2023-07-29T09:21:32;4.43;;;1.95;;
20283;SDS011;10301;50.832;4.080;2023-07-29T09:23:57;4.28;;;1.85;;
20283;SDS011;10301;50.832;4.080;2023-07-29T09:26:29;4.50;;;1.60;;
20283;SDS011;10301;50.832;4.080;2023-07-29T09:28:55;3.67;;;1.58;;
20283;SDS011;10301;50.832;4.080;2023-07-29T09:31:22;3.80;;;1.70;;
20283;SDS011;10301;50.832;4.080;2023-07-29T09:33:49;4.80;;;2.13;;
20283;SDS011;10301;50.832;4.080;2023-07-29T09:36:20;5.43;;;1.80;;
20283;SDS011;10301;50.832;4.080;2023-07-29T09:38:46;4.97;;;2.30;;
20283;SDS011;10301;50.832;4.080;2023-07-29T09:41:12;3.03;;;1.65;;
20283;SDS011;10301;50.832;4.080;2023-07-29T09:43:40;3.80;;;1.70;;
20283;SDS011;10301;50.832;4.080;2023-07-29T09:46:06;3.88;;;1.88;;
20283;SDS011;10301;50.832;4.080;2023-07-29T09:48:34;5.00;;;1.75;;
20283;SDS011;10301;50.832;4.080;2023-07-29T09:51:13;5.15;;;1.75;;
20283;SDS011;10301;50.832;4.080;2023-07-29T09:53:40;4.07;;;1.67;;
20283;SDS011;10301;50.832;4.080;2023-07-29T09:56:11;4.35;;;2.00;;
20283;SDS011;10301;50.832;4.080;2023-07-29T09:58:37;5.47;;;2.30;;
20283;SDS011;10301;50.832;4.080;2023-07-29T10:01:04;3.72;;;1.85;;
20283;SDS011;10301;50.832;4.080;2023-07-29T10:03:33;4.63;;;1.90;;
20283;SDS011;10301;50.832;4.080;2023-07-29T10:06:04;4.07;;;1.90;;
20283;SDS011;10301;50.832;4.080;2023-07-29T10:08:30;3.47;;;1.80;;
20283;SDS011;10301;50.832;4.080;2023-07-29T10:11:05;3.78;;;1.70;;
20283;SDS011;10301;50.832;4.080;2023-07-29T10:13:32;5.65;;;1.90;;
20283;SDS011;10301;50.832;4.080;2023-07-29T10:15:59;4.28;;;1.73;;
20283;SDS011;10301;50.832;4.080;2023-07-29T10:18:28;4.25;;;2.10;;
20283;SDS011;10301;50.832;4.080;2023-07-29T10:20:54;3.97;;;1.98;;
20283;SDS011;10301;50.832;4.080;2023-07-29T10:23:22;6.13;;;2.30;;
20283;SDS011;10301;50.832;4.080;2023-07-29T10:26:04;3.60;;;2.00;;
20283;SDS011;10301;50.832;4.080;2023-07-29T10:28:31;3.53;;;1.80;;
20283;SDS011;10301;50.832;4.080;2023-07-29T10:30:59;2.85;;;1.63;;
20283;SDS011;10301;50.832;4.080;2023-07-29T10:33:25;4.18;;;1.80;;
20283;SDS011;10301;50.832;4.080;2023-07-29T10:35:52;4.85;;;2.08;;
20283;SDS011;10301;50.832;4.080;2023-07-29T10:38:19;5.82;;;1.88;;
20283;SDS011;10301;50.832;4.080;2023-07-29T10:40:48;5.80;;;1.77;;
20283;SDS011;10301;50.832;4.080;2023-07-29T10:43:23;4.55;;;1.60;;
20283;SDS011;10301;50.832;4.080;2023-07-29T10:45:55;3.40;;;1.90;;
20283;SDS011;10301;50.832;4.080;2023-07-29T10:54:00;7.57;;;1.75;;
20283;SDS011;10301;50.832;4.080;2023-07-29T10:56:34;6.13;;;1.80;;
20283;SDS011;10301;50.832;4.080;2023-07-29T11:01:42;4.50;;;1.73;;
20283;SDS011;10301;50.832;4.080;2023-07-29T11:09:42;5.60;;;2.10;;
20283;SDS011;10301;50.832;4.080;2023-07-29T11:17:58;4.50;;;1.83;;
20283;SDS011;10301;50.832;4.080;2023-07-29T11:20:24;3.00;;;1.73;;
20283;SDS011;10301;50.832;4.080;2023-07-29T11:22:54;5.68;;;2.35;;
20283;SDS011;10301;50.832;4.080;2023-07-29T11:25:22;4.43;;;2.47;;
20283;SDS011;10301;50.832;4.080;2023-07-29T11:27:48;4.65;;;2.38;;
20283;SDS011;10301;50.832;4.080;2023-07-29T11:30:15;4.25;;;2.15;;
20283;SDS011;10301;50.832;4.080;2023-07-29T11:32:42;5.15;;;2.42;;
20283;SDS011;10301;50.832;4.080;2023-07-29T11:35:13;5.25;;;2.55;;
20283;SDS011;10301;50.832;4.080;2023-07-29T11:37:40;5.47;;;2.90;;
20283;SDS011;10301;50.832;4.080;2023-07-29T11:40:07;4.35;;;2.80;;
20283;SDS011;10301;50.832;4.080;2023-07-29T11:42:35;4.50;;;2.85;;
20283;SDS011;10301;50.832;4.080;2023-07-29T11:45:02;4.45;;;2.70;;
20283;SDS011;10301;50.832;4.080;2023-07-29T11:47:30;5.97;;;3.38;;
20283;SDS011;10301;50.832;4.080;2023-07-29T11:49:58;7.40;;;3.10;;
20283;SDS011;10301;50.832;4.080;2023-07-29T11:52:25;5.57;;;2.42;;
20283;SDS011;10301;50.832;4.080;2023-07-29T11:54:52;4.10;;;2.08;;
20283;SDS011;10301;50.832;4.080;2023-07-29T11:57:18;3.92;;;2.05;;
20283;SDS011;10301;50.832;4.080;2023-07-29T11:59:44;4.47;;;2.20;;
20283;SDS011;10301;50.832;4.080;2023-07-29T12:02:13;5.30;;;2.40;;
20283;SDS011;10301;50.832;4.080;2023-07-29T12:04:41;4.50;;;2.65;;
20283;SDS011;10301;50.832;4.080;2023-07-29T12:07:08;3.80;;;2.38;;
20283;SDS011;10301;50.832;4.080;2023-07-29T12:09:34;5.15;;;2.50;;
20283;SDS011;10301;50.832;4.080;2023-07-29T12:12:01;3.88;;;2.40;;
20283;SDS011;10301;50.832;4.080;2023-07-29T12:14:28;3.63;;;2.20;;
20283;SDS011;10301;50.832;4.080;2023-07-29T12:16:54;4.15;;;2.50;;
20283;SDS011;10301;50.832;4.080;2023-07-29T12:19:20;5.65;;;2.17;;
20283;SDS011;10301;50.832;4.080;2023-07-29T12:21:47;6.38;;;2.38;;
20283;SDS011;10301;50.832;4.080;2023-07-29T12:24:13;5.00;;;2.20;;
20283;SDS011;10301;50.832;4.080;2023-07-29T12:26:40;4.95;;;2.90;;
20283;SDS011;10301;50.832;4.080;2023-07-29T12:29:13;4.50;;;3.08;;
20283;SDS011;10301;50.832;4.080;2023-07-29T12:31:40;4.75;;;2.85;;
20283;SDS011;10301;50.832;4.080;2023-07-29T12:34:06;4.30;;;2.30;;
20283;SDS011;10301;50.832;4.080;2023-07-29T12:39:19;4.82;;;1.98;;
20283;SDS011;10301;50.832;4.080;2023-07-29T12:41:55;3.10;;;1.50;;
20283;SDS011;10301;50.832;4.080;2023-07-29T12:44:23;3.10;;;1.48;;
20283;SDS011;10301;50.832;4.080;2023-07-29T12:46:49;3.08;;;1.27;;
20283;SDS011;10301;50.832;4.080;2023-07-29T12:49:15;2.72;;;1.60;;
20283;SDS011;10301;50.832;4.080;2023-07-29T12:51:40;2.92;;;1.60;;
20283;SDS011;10301;50.832;4.080;2023-07-29T12:54:06;4.28;;;2.10;;
20283;SDS011;10301;50.832;4.080;2023-07-29T12:56:32;3.50;;;1.90;;
20283;SDS011;10301;50.832;4.080;2023-07-29T12:58:58;6.07;;;1.80;;
20283;SDS011;10301;50.832;4.080;2023-07-29T13:01:25;3.50;;;1.95;;
20283;SDS011;10301;50.832;4.080;2023-07-29T13:03:51;3.65;;;2.17;;
20283;SDS011;10301;50.832;4.080;2023-07-29T13:06:17;3.75;;;2.13;;
20283;SDS011;10301;50.832;4.080;2023-07-29T13:08:43;4.45;;;2.30;;
20283;SDS011;10301;50.832;4.080;2023-07-29T13:11:09;6.10;;;2.40;;
20283;SDS011;10301;50.832;4.080;2023-07-29T13:13:35;3.60;;;2.10;;
20283;SDS011;10301;50.832;4.080;2023-07-29T13:16:01;4.25;;;2.38;;
20283;SDS011;10301;50.832;4.080;2023-07-29T13:18:27;3.70;;;2.30;;
20283;SDS011;10301;50.832;4.080;2023-07-29T13:20:53;3.60;;;2.10;;
20283;SDS011;10301;50.832;4.080;2023-07-29T13:23:19;3.15;;;2.08;;
20283;SDS011;10301;50.832;4.080;2023-07-29T13:25:45;3.95;;;2.17;;
20283;SDS011;10301;50.832;4.080;2023-07-29T13:28:11;3.70;;;2.00;;
20283;SDS011;10301;50.832;4.080;2023-07-29T13:30:38;3.83;;;2.15;;
20283;SDS011;10301;50.832;4.080;2023-07-29T13:33:04;2.95;;;1.60;;
20283;SDS011;10301;50.832;4.080;2023-07-29T13:35:31;3.10;;;1.67;;
20283;SDS011;10301;50.832;4.080;2023-07-29T13:37:56;3.53;;;2.03;;
20283;SDS011;10301;50.832;4.080;2023-07-29T13:40:22;3.95;;;1.73;;
20283;SDS011;10301;50.832;4.080;2023-07-29T13:42:47;3.50;;;1.88;;
20283;SDS011;10301;50.832;4.080;2023-07-29T13:45:13;3.42;;;1.90;;
20283;SDS011;10301;50.832;4.080;2023-07-29T13:47:39;4.50;;;1.90;;
20283;SDS011;10301;50.832;4.080;2023-07-29T13:50:05;3.03;;;1.60;;
20283;SDS011;10301;50.832;4.080;2023-07-29T13:52:32;3.00;;;1.70;;
20283;SDS011;10301;50.832;4.080;2023-07-29T13:54:58;3.97;;;1.60;;
20283;SDS011;10301;50.832;4.080;2023-07-29T13:57:24;3.90;;;1.50;;
20283;SDS011;10301;50.832;4.080;2023-07-29T13:59:49;2.55;;;1.48;;
20283;SDS011;10301;50.832;4.080;2023-07-29T14:02:15;4.28;;;1.77;;
20283;SDS011;10301;50.832;4.080;2023-07-29T14:04:40;2.83;;;1.45;;
20283;SDS011;10301;50.832;4.080;2023-07-29T14:07:06;3.15;;;1.60;;
20283;SDS011;10301;50.832;4.080;2023-07-29T14:09:32;3.83;;;1.92;;
20283;SDS011;10301;50.832;4.080;2023-07-29T14:11:57;3.65;;;1.63;;
20283;SDS011;10301;50.832;4.080;2023-07-29T14:14:23;3.60;;;1.60;;
20283;SDS011;10301;50.832;4.080;2023-07-29T14:16:49;3.72;;;1.75;;
20283;SDS011;10301;50.832;4.080;2023-07-29T14:19:14;4.88;;;1.80;;
20283;SDS011;10301;50.832;4.080;2023-07-29T14:21:40;3.72;;;1.42;;
20283;SDS011;10301;50.832;4.080;2023-07-29T14:24:05;3.30;;;1.48;;
20283;SDS011;10301;50.832;4.080;2023-07-29T14:26:31;2.50;;;1.50;;
20283;SDS011;10301;50.832;4.080;2023-07-29T14:28:57;3.00;;;1.55;;
20283;SDS011;10301;50.832;4.080;2023-07-29T14:31:22;4.13;;;1.63;;
20283;SDS011;10301;50.832;4.080;2023-07-29T14:33:48;3.83;;;1.63;;
20283;SDS011;10301;50.832;4.080;2023-07-29T14:36:14;3.03;;;1.40;;
20283;SDS011;10301;50.832;4.080;2023-07-29T14:38:40;3.38;;;1.77;;
20283;SDS011;10301;50.832;4.080;2023-07-29T14:41:06;4.35;;;1.88;;
20283;SDS011;10301;50.832;4.080;2023-07-29T14:43:33;3.25;;;2.03;;
20283;SDS011;10301;50.832;4.080;2023-07-29T14:45:59;3.53;;;1.98;;
20283;SDS011;10301;50.832;4.080;2023-07-29T14:48:25;3.30;;;1.77;;
20283;SDS011;10301;50.832;4.080;2023-07-29T14:50:50;3.42;;;1.90;;
20283;SDS011;10301;50.832;4.080;2023-07-29T14:53:16;4.15;;;2.13;;
20283;SDS011;10301;50.832;4.080;2023-07-29T14:55:42;5.90;;;2.05;;
20283;SDS011;10301;50.832;4.080;2023-07-29T14:58:07;3.92;;;2.00;;
20283;SDS011;10301;50.832;4.080;2023-07-29T15:00:33;3.25;;;1.83;;
20283;SDS011;10301;50.832;4.080;2023-07-29T15:02:59;4.20;;;1.90;;
20283;SDS011;10301;50.832;4.080;2023-07-29T15:05:25;3.25;;;1.80;;
20283;SDS011;10301;50.832;4.080;2023-07-29T15:07:50;3.67;;;1.88;;
20283;SDS011;10301;50.832;4.080;2023-07-29T15:10:16;3.50;;;1.90;;
20283;SDS011;10301;50.832;4.080;2023-07-29T15:12:42;4.07;;;2.13;;
20283;SDS011;10301;50.832;4.080;2023-07-29T15:15:08;3.75;;;1.90;;